Simsbury, Connecticut
Current Conditions -  °F | °C
As of 5:51 PM on Wednesday 26 Nov 2014 (Local Time) from KBDL Reporting Station
Ice Pellets Ice Pellets  
Wind Chill: 24°   Ceiling: 700
Heat Index: 34°   Visibility: 2mi
Dew Point: 31°   Wind: 15mph
Humidity: 89%   Direction: 360°N
Pressure: 29.83"   Gusts: 22mph
Location:  41.88°N, 72.8°W
Report Text: KBDL 262251Z 36013G19KT 2SM -RAPL BR OVC007 01/M01 A2983 RMK AO2 SFC VIS 3 RAB28SNE28 SLP104 P0010 T00111006 $
Loading
Personal Weather Stations






























Interactive Weather Map New forecast layout! Learn more

10-Day Weather Forecast

Advertisements
Track Severe Weather on mobile